createdAt,value
2023-04-11T00:00:57.454Z,0.45
2023-04-11T00:03:25.274Z,0.30
2023-04-11T00:05:52.464Z,0.30
2023-04-11T00:08:19.463Z,0.17
2023-04-11T00:10:46.442Z,0.10
2023-04-11T00:13:13.406Z,0.32
2023-04-11T00:15:40.504Z,0.15
2023-04-11T00:18:07.611Z,0.10
2023-04-11T00:20:34.678Z,0.10
2023-04-11T00:23:01.833Z,0.10
2023-04-11T00:25:30.156Z,0.10
2023-04-11T00:27:57.349Z,0.10
2023-04-11T00:30:24.420Z,0.15
2023-04-11T00:32:51.417Z,0.20
2023-04-11T00:35:18.397Z,0.22
2023-04-11T00:37:45.674Z,0.10
2023-04-11T00:40:16.376Z,0.10
2023-04-11T00:42:43.329Z,0.32
2023-04-11T00:45:10.784Z,0.10
2023-04-11T00:47:38.071Z,0.20
2023-04-11T00:50:05.766Z,0.17
2023-04-11T00:52:33.045Z,0.10
2023-04-11T00:55:03.015Z,0.10
2023-04-11T00:57:30.923Z,0.20
2023-04-11T00:59:58.705Z,0.10
2023-04-11T01:02:26.767Z,0.40
2023-04-11T01:04:54.161Z,0.20
2023-04-11T01:07:23.190Z,0.10
2023-04-11T01:09:50.956Z,0.10
2023-04-11T01:12:18.331Z,0.20
2023-04-11T01:14:47.915Z,2.22
2023-04-11T01:17:15.610Z,0.10
2023-04-11T01:19:42.734Z,0.10
2023-04-11T01:22:13.021Z,0.30
2023-04-11T01:24:39.976Z,0.10
2023-04-11T01:27:06.910Z,0.08
2023-04-11T01:29:33.975Z,0.30
2023-04-11T01:32:00.918Z,0.20
2023-04-11T01:34:28.672Z,0.10
2023-04-11T01:36:56.014Z,0.13
2023-04-11T01:39:23.194Z,0.25
2023-04-11T01:41:50.866Z,0.30
2023-04-11T01:44:19.506Z,0.20
2023-04-11T01:46:47.601Z,0.40
2023-04-11T01:49:15.687Z,0.50
2023-04-11T01:51:42.807Z,0.28
2023-04-11T01:54:09.770Z,0.32
2023-04-11T01:56:36.715Z,0.50
2023-04-11T01:59:04.516Z,0.30
2023-04-11T02:03:58.936Z,0.60
2023-04-11T02:06:27.576Z,0.57
2023-04-11T02:08:54.945Z,0.20
2023-04-11T02:11:22.151Z,0.55
2023-04-11T02:13:49.394Z,0.40
2023-04-11T02:16:18.192Z,0.38
2023-04-11T02:18:46.385Z,0.00
2023-04-11T02:21:13.410Z,0.40
2023-04-11T02:23:40.321Z,0.20
2023-04-11T02:26:07.458Z,0.10
2023-04-11T02:28:34.631Z,0.28
2023-04-11T02:31:02.775Z,0.30
2023-04-11T02:33:30.023Z,0.20
2023-04-11T02:35:57.005Z,0.10
2023-04-11T02:38:23.992Z,0.52
2023-04-11T02:40:50.853Z,0.25
2023-04-11T02:43:17.872Z,0.10
2023-04-11T02:45:44.760Z,0.17
2023-04-11T02:48:11.628Z,0.30
2023-04-11T02:50:41.070Z,0.40
2023-04-11T02:53:08.191Z,0.20
2023-04-11T02:55:35.263Z,0.20
2023-04-11T02:58:02.339Z,0.13
2023-04-11T03:00:29.370Z,0.20
2023-04-11T03:02:57.107Z,0.30
2023-04-11T03:05:24.134Z,0.22
2023-04-11T03:07:51.338Z,0.38
2023-04-11T03:10:18.447Z,0.25
2023-04-11T03:12:45.454Z,0.30
2023-04-11T03:15:15.380Z,0.30
2023-04-11T03:17:42.472Z,0.30
2023-04-11T03:20:11.860Z,0.30
2023-04-11T03:22:39.058Z,0.20
2023-04-11T03:25:07.409Z,0.20
2023-04-11T03:27:34.389Z,0.30
2023-04-11T03:30:01.436Z,0.40
2023-04-11T03:32:28.422Z,0.70
2023-04-11T03:34:55.495Z,0.28
2023-04-11T03:37:22.405Z,0.30
2023-04-11T03:39:49.298Z,0.40
2023-04-11T03:42:16.356Z,0.35
2023-04-11T03:44:43.230Z,0.45
2023-04-11T03:47:10.219Z,0.20
2023-04-11T03:49:37.198Z,0.40
2023-04-11T03:52:04.996Z,0.30
2023-04-11T03:54:32.440Z,0.73
2023-04-11T03:56:59.386Z,0.30
2023-04-11T03:59:26.296Z,0.68
2023-04-11T04:01:53.248Z,0.40
2023-04-11T04:04:20.593Z,0.30
2023-04-11T04:06:47.559Z,0.30
2023-04-11T04:09:14.444Z,0.52
2023-04-11T04:11:41.338Z,0.50
2023-04-11T04:14:08.506Z,0.30
2023-04-11T04:16:35.553Z,0.20
2023-04-11T04:19:02.769Z,0.43
2023-04-11T04:21:32.845Z,0.50
2023-04-11T04:24:03.782Z,0.50
2023-04-11T04:26:31.498Z,0.75
2023-04-11T04:29:04.920Z,0.30
2023-04-11T04:31:34.933Z,0.47
2023-04-11T04:34:10.547Z,0.45
2023-04-11T04:36:46.647Z,0.20
2023-04-11T04:39:17.693Z,0.55
2023-04-11T04:41:58.380Z,0.35
2023-04-11T04:44:25.829Z,0.85
2023-04-11T04:46:56.893Z,0.20
2023-04-11T04:49:23.788Z,0.47
2023-04-11T04:51:50.728Z,0.43
2023-04-11T04:54:19.492Z,0.50
2023-04-11T04:56:48.365Z,0.57
2023-04-11T04:59:16.388Z,0.40
2023-04-11T05:01:43.481Z,0.32
2023-04-11T05:04:10.659Z,0.77
2023-04-11T05:06:37.809Z,0.70
2023-04-11T05:09:06.221Z,0.40
2023-04-11T05:11:33.998Z,0.70
2023-04-11T05:14:01.089Z,0.40
2023-04-11T05:16:28.109Z,0.10
2023-04-11T05:18:55.134Z,0.40
2023-04-11T05:21:22.442Z,0.75
2023-04-11T05:23:49.371Z,0.60
2023-04-11T05:26:16.286Z,0.40
2023-04-11T05:28:43.276Z,0.50
2023-04-11T05:31:11.810Z,0.70
2023-04-11T05:33:39.679Z,0.52
2023-04-11T05:36:07.188Z,0.50
2023-04-11T05:38:34.200Z,0.40
2023-04-11T05:41:01.515Z,0.50
2023-04-11T05:43:28.464Z,0.47
2023-04-11T05:45:55.569Z,0.55
2023-04-11T05:48:23.940Z,0.40
2023-04-11T05:50:51.499Z,0.57
2023-04-11T05:53:18.761Z,0.43
2023-04-11T05:55:46.047Z,0.32
2023-04-11T05:58:12.939Z,0.45
2023-04-11T06:00:39.952Z,0.50
2023-04-11T06:03:08.161Z,0.60
2023-04-11T06:05:36.018Z,0.20
2023-04-11T06:08:04.341Z,0.50
2023-04-11T06:10:31.771Z,0.38
2023-04-11T06:12:59.034Z,0.40
2023-04-11T06:15:36.307Z,0.40
2023-04-11T06:18:17.709Z,0.40
2023-04-11T06:20:47.194Z,0.30
2023-04-11T06:23:14.076Z,0.85
2023-04-11T06:25:41.178Z,0.50
2023-04-11T06:28:08.250Z,0.75
2023-04-11T06:30:35.567Z,0.43
2023-04-11T06:33:02.524Z,0.93
2023-04-11T06:35:29.449Z,0.68
2023-04-11T06:37:56.295Z,1.30
2023-04-11T06:40:23.223Z,2.28
2023-04-11T06:42:50.190Z,1.63
2023-04-11T06:45:17.162Z,1.80
2023-04-11T06:47:44.181Z,0.70
2023-04-11T06:50:11.603Z,0.90
2023-04-11T06:52:38.683Z,0.50
2023-04-11T06:55:07.239Z,0.70
2023-04-11T06:57:34.411Z,0.82
2023-04-11T07:00:01.293Z,0.90
2023-04-11T07:02:28.430Z,0.47
2023-04-11T07:04:55.658Z,0.50
2023-04-11T07:07:22.650Z,0.30
2023-04-11T07:09:49.814Z,0.73
2023-04-11T07:12:16.974Z,0.20
2023-04-11T07:14:44.013Z,0.20
2023-04-11T07:17:10.861Z,0.63
2023-04-11T07:19:38.178Z,0.63
2023-04-11T07:22:05.223Z,0.70
2023-04-11T07:24:32.189Z,0.60
2023-04-11T07:26:59.227Z,0.68
2023-04-11T07:29:26.150Z,0.50
2023-04-11T07:31:53.853Z,0.77
2023-04-11T07:34:20.778Z,0.77
2023-04-11T07:36:48.010Z,0.65
2023-04-11T07:39:15.311Z,0.40
2023-04-11T07:41:42.354Z,0.40
2023-04-11T07:44:09.731Z,0.65
2023-04-11T07:46:36.693Z,0.40
2023-04-11T07:49:04.784Z,0.55
2023-04-11T07:51:31.729Z,0.47
2023-04-11T07:53:58.991Z,0.60
2023-04-11T07:56:26.366Z,0.40
2023-04-11T07:58:53.440Z,0.68
2023-04-11T08:01:25.688Z,0.65
2023-04-11T08:03:57.075Z,0.75
2023-04-11T08:06:24.503Z,0.70
2023-04-11T08:08:51.578Z,0.50
2023-04-11T08:11:19.032Z,0.22
2023-04-11T08:13:46.320Z,0.50
2023-04-11T08:16:15.072Z,0.65
2023-04-11T08:18:42.751Z,0.68
2023-04-11T08:21:11.506Z,0.43
2023-04-11T08:23:42.776Z,0.60
2023-04-11T08:26:10.794Z,0.32
2023-04-11T08:28:37.699Z,0.68
2023-04-11T08:31:05.605Z,0.60
2023-04-11T08:33:33.825Z,0.65
2023-04-11T08:36:01.186Z,0.50
2023-04-11T08:38:28.422Z,0.35
2023-04-11T08:40:56.265Z,0.50
2023-04-11T08:43:23.648Z,0.50
2023-04-11T08:45:50.900Z,0.40
2023-04-11T08:48:19.570Z,0.40
2023-04-11T08:50:46.543Z,0.77
2023-04-11T08:53:14.568Z,0.47
2023-04-11T08:55:48.506Z,0.20
2023-04-11T08:58:15.538Z,0.50
2023-04-11T09:00:42.656Z,0.60
2023-04-11T09:03:12.054Z,0.40
2023-04-11T09:05:48.637Z,0.32
2023-04-11T09:08:17.246Z,0.40
2023-04-11T09:10:45.732Z,0.32
2023-04-11T09:13:26.068Z,0.20
2023-04-11T09:16:12.439Z,0.50
2023-04-11T09:18:47.052Z,0.50
2023-04-11T09:21:15.648Z,0.32
2023-04-11T09:23:42.959Z,0.73
2023-04-11T09:26:13.051Z,0.40
2023-04-11T09:28:44.811Z,0.30
2023-04-11T09:31:14.819Z,0.50
2023-04-11T09:33:56.936Z,0.40
2023-04-11T09:36:28.998Z,0.80
2023-04-11T09:38:56.192Z,0.20
2023-04-11T09:41:33.860Z,0.43
2023-04-11T09:44:01.432Z,0.30
2023-04-11T09:46:28.715Z,0.35
2023-04-11T09:48:57.067Z,0.32
2023-04-11T09:53:55.838Z,0.30
2023-04-11T09:56:24.150Z,0.20
2023-04-11T09:58:52.093Z,0.50
2023-04-11T10:01:20.463Z,0.40
2023-04-11T10:03:51.080Z,0.17
2023-04-11T10:06:31.507Z,0.30
2023-04-11T10:09:13.169Z,0.15
2023-04-11T10:11:44.334Z,0.35
2023-04-11T10:14:39.266Z,0.10
2023-04-11T10:17:21.972Z,0.20
2023-04-11T10:19:54.880Z,0.10
2023-04-11T10:22:50.780Z,0.25
2023-04-11T10:25:18.382Z,0.52
2023-04-11T10:28:01.397Z,0.05
2023-04-11T10:30:40.601Z,0.17
2023-04-11T10:33:23.664Z,0.20
2023-04-11T10:36:10.872Z,0.20
2023-04-11T10:38:44.016Z,0.08
2023-04-11T10:41:33.925Z,0.00
2023-04-11T10:44:25.402Z,0.03
2023-04-11T10:46:55.894Z,0.10
2023-04-11T10:49:41.036Z,0.13
2023-04-11T10:52:25.506Z,0.10
2023-04-11T10:54:55.441Z,0.00
2023-04-11T10:57:23.178Z,0.10
2023-04-11T10:59:50.279Z,0.00
2023-04-11T11:02:22.337Z,0.00
2023-04-11T11:04:50.131Z,0.05
2023-04-11T11:07:17.559Z,0.10
2023-04-11T11:09:51.380Z,0.00
2023-04-11T11:12:18.648Z,0.08
2023-04-11T11:14:47.109Z,0.00
2023-04-11T11:17:17.235Z,0.00
2023-04-11T11:19:45.936Z,0.03
2023-04-11T11:22:25.978Z,0.00
2023-04-11T11:24:53.288Z,0.20
2023-04-11T11:27:24.925Z,0.00
2023-04-11T11:29:53.970Z,0.00
2023-04-11T11:32:28.369Z,0.00
2023-04-11T11:34:57.675Z,0.00
2023-04-11T11:37:25.058Z,0.00
2023-04-11T11:39:52.289Z,0.00
2023-04-11T11:42:22.766Z,0.00
2023-04-11T11:44:49.699Z,0.00
2023-04-11T11:47:16.838Z,0.00
2023-04-11T11:49:54.948Z,0.05
2023-04-11T11:52:37.081Z,0.00
2023-04-11T11:55:11.422Z,0.00
2023-04-11T11:57:43.946Z,0.00
2023-04-11T12:00:11.816Z,0.00
2023-04-11T12:02:40.848Z,0.00
2023-04-11T12:05:14.358Z,0.00
2023-04-11T12:07:41.518Z,0.00
2023-04-11T12:10:11.990Z,0.00
2023-04-11T12:12:43.969Z,0.20
2023-04-11T12:15:23.317Z,0.10
2023-04-11T12:17:56.234Z,0.20
2023-04-11T12:20:24.353Z,0.20
2023-04-11T12:22:53.698Z,0.25
2023-04-11T12:25:22.064Z,0.20
2023-04-11T12:27:49.024Z,0.10
2023-04-11T12:30:16.295Z,0.20
2023-04-11T12:32:45.924Z,0.20
2023-04-11T12:35:13.398Z,0.30
2023-04-11T12:37:40.615Z,0.30
2023-04-11T12:40:14.736Z,0.30
2023-04-11T12:42:49.438Z,0.15
2023-04-11T12:45:26.168Z,0.00
2023-04-11T12:47:53.556Z,0.10
2023-04-11T12:50:23.646Z,0.10
2023-04-11T12:52:55.560Z,0.15
2023-04-11T12:55:23.532Z,0.00
2023-04-11T12:57:58.677Z,0.05
2023-04-11T13:00:26.453Z,0.05
2023-04-11T13:02:53.554Z,0.00
2023-04-11T13:05:22.172Z,0.10
2023-04-11T13:07:49.090Z,0.47
2023-04-11T13:10:16.506Z,0.30
2023-04-11T13:12:45.017Z,0.08
2023-04-11T13:15:15.211Z,0.00
2023-04-11T13:17:42.418Z,0.52
2023-04-11T13:20:10.709Z,0.20
2023-04-11T13:22:44.373Z,0.10
2023-04-11T13:25:12.442Z,0.00
2023-04-11T13:27:40.223Z,0.03
2023-04-11T13:30:08.754Z,0.08
2023-04-11T13:32:36.285Z,0.00
2023-04-11T13:35:04.088Z,0.10
2023-04-11T13:37:35.561Z,0.22
2023-04-11T13:40:02.909Z,0.20
2023-04-11T13:42:29.835Z,0.20
2023-04-11T13:44:56.734Z,0.28
2023-04-11T13:47:29.260Z,0.08
2023-04-11T13:49:56.189Z,0.10
2023-04-11T13:52:23.887Z,0.10
2023-04-11T13:54:50.771Z,0.10
2023-04-11T13:57:19.702Z,0.10
2023-04-11T13:59:50.438Z,0.10
2023-04-11T14:02:17.340Z,0.50
2023-04-11T14:04:44.225Z,0.30
2023-04-11T14:07:12.738Z,0.30
2023-04-11T14:09:39.676Z,0.30
2023-04-11T14:12:06.776Z,0.20
2023-04-11T14:14:33.782Z,0.30
2023-04-11T14:17:01.166Z,0.30
2023-04-11T14:19:28.148Z,0.25
2023-04-11T14:21:55.338Z,1.30
2023-04-11T14:24:22.484Z,0.98
2023-04-11T14:26:50.256Z,0.70
2023-04-11T14:29:17.694Z,1.00
2023-04-11T14:31:44.711Z,0.55
2023-04-11T14:34:11.678Z,0.90
2023-04-11T14:36:38.949Z,0.77
2023-04-11T14:39:05.985Z,0.73
2023-04-11T14:41:33.206Z,1.00
2023-04-11T14:44:00.206Z,0.60
2023-04-11T14:46:27.983Z,0.88
2023-04-11T14:48:54.995Z,0.52
2023-04-11T14:51:23.970Z,0.75
2023-04-11T14:53:55.321Z,1.13
2023-04-11T14:56:23.404Z,1.05
2023-04-11T14:58:51.761Z,0.95
2023-04-11T15:01:20.184Z,0.60
2023-04-11T15:03:47.263Z,0.75
2023-04-11T15:06:14.438Z,1.00
2023-04-11T15:08:41.590Z,1.30
2023-04-11T15:11:08.636Z,1.13
2023-04-11T15:13:35.608Z,1.20
2023-04-11T15:16:06.657Z,0.80
2023-04-11T15:18:33.871Z,1.20
2023-04-11T15:21:03.287Z,0.85
2023-04-11T15:23:30.513Z,1.27
2023-04-11T15:26:02.701Z,1.02
2023-04-11T15:28:34.557Z,1.15
2023-04-11T15:31:02.657Z,1.00
2023-04-11T15:33:32.042Z,0.90
2023-04-11T15:36:00.756Z,1.00
2023-04-11T15:38:28.730Z,1.20
2023-04-11T15:40:58.412Z,1.52
2023-04-11T15:43:25.910Z,1.63
2023-04-11T15:45:53.744Z,1.05
2023-04-11T15:48:21.135Z,1.08
2023-04-11T15:50:48.101Z,1.30
2023-04-11T15:53:15.024Z,2.05
2023-04-11T15:55:42.788Z,1.20
2023-04-11T15:58:10.393Z,0.90
2023-04-11T16:00:38.660Z,1.55
2023-04-11T16:03:10.784Z,1.33
2023-04-11T16:05:41.885Z,1.25
2023-04-11T16:08:08.995Z,1.80
2023-04-11T16:10:36.716Z,2.13
2023-04-11T16:13:03.653Z,1.92
2023-04-11T16:15:30.822Z,1.75
2023-04-11T16:17:57.846Z,1.48
2023-04-11T16:20:25.426Z,1.45
2023-04-11T16:22:52.284Z,1.33
2023-04-11T16:25:21.451Z,1.85
2023-04-11T16:27:51.489Z,1.33
2023-04-11T16:30:18.611Z,1.00
2023-04-11T16:32:45.604Z,1.50
2023-04-11T16:35:12.557Z,1.70
2023-04-11T16:37:40.055Z,1.20
2023-04-11T16:40:13.809Z,1.58
2023-04-11T16:42:40.973Z,1.77
2023-04-11T16:45:09.996Z,2.17
2023-04-11T16:47:37.230Z,1.38
2023-04-11T16:50:05.940Z,0.98
2023-04-11T16:52:33.910Z,0.70
2023-04-11T16:55:00.993Z,1.52
2023-04-11T16:57:28.053Z,1.25
2023-04-11T16:59:54.947Z,1.38
2023-04-11T17:02:22.193Z,1.60
2023-04-11T17:04:49.376Z,1.73
2023-04-11T17:07:16.323Z,1.20
2023-04-11T17:09:43.297Z,0.85
2023-04-11T17:12:10.571Z,0.60
2023-04-11T17:14:37.971Z,1.30
2023-04-11T17:17:04.963Z,1.33
2023-04-11T17:19:32.116Z,1.63
2023-04-11T17:21:59.013Z,0.63
2023-04-11T17:24:26.539Z,1.40
2023-04-11T17:26:53.751Z,1.80
2023-04-11T17:29:20.782Z,1.30
2023-04-11T17:31:47.953Z,2.08
2023-04-11T17:34:15.117Z,1.58
2023-04-11T17:36:43.079Z,2.25
2023-04-11T17:39:17.093Z,1.70
2023-04-11T17:41:45.520Z,2.15
2023-04-11T17:44:13.001Z,1.50
2023-04-11T17:46:40.250Z,1.23
2023-04-11T17:49:07.464Z,1.95
2023-04-11T17:51:34.694Z,1.30
2023-04-11T17:54:02.208Z,1.80
2023-04-11T17:56:29.560Z,1.42
2023-04-11T17:58:56.647Z,0.90
2023-04-11T18:01:25.025Z,1.00
2023-04-11T18:03:52.169Z,1.25
2023-04-11T18:06:19.575Z,1.17
2023-04-11T18:08:51.431Z,1.30
2023-04-11T18:11:19.707Z,1.13
2023-04-11T18:13:53.862Z,1.33
2023-04-11T18:16:21.511Z,1.60
2023-04-11T18:18:48.863Z,1.20
2023-04-11T18:21:16.904Z,1.35
2023-04-11T18:23:43.850Z,1.67
2023-04-11T18:26:11.101Z,1.10
2023-04-11T18:28:38.249Z,0.85
2023-04-11T18:31:05.745Z,0.85
2023-04-11T18:33:33.908Z,0.93
2023-04-11T18:36:01.719Z,1.27
2023-04-11T18:38:29.076Z,1.52
2023-04-11T18:40:56.715Z,2.15
2023-04-11T18:43:25.095Z,0.90
2023-04-11T18:45:52.787Z,1.20
2023-04-11T18:48:19.737Z,1.45
2023-04-11T18:50:48.789Z,1.98
2023-04-11T18:53:16.294Z,1.50
2023-04-11T18:55:43.516Z,0.93
2023-04-11T18:58:12.993Z,1.52
2023-04-11T19:00:42.545Z,1.10
2023-04-11T19:03:15.706Z,1.50
2023-04-11T19:05:45.170Z,1.42
2023-04-11T19:08:12.277Z,1.55
2023-04-11T19:10:39.532Z,1.98
2023-04-11T19:13:06.969Z,1.38
2023-04-11T19:15:33.951Z,1.10
2023-04-11T19:18:01.921Z,2.17
2023-04-11T19:20:29.785Z,1.08
2023-04-11T19:22:57.096Z,1.63
2023-04-11T19:25:24.491Z,1.55
2023-04-11T19:27:51.624Z,1.02
2023-04-11T19:30:18.526Z,1.65
2023-04-11T19:32:47.487Z,1.50
2023-04-11T19:35:15.122Z,1.10
2023-04-11T19:37:42.850Z,1.73
2023-04-11T19:40:16.644Z,1.67
2023-04-11T19:42:45.007Z,2.25
2023-04-11T19:45:12.697Z,1.60
2023-04-11T19:47:41.103Z,2.00
2023-04-11T19:50:13.332Z,2.13
2023-04-11T19:52:41.668Z,2.13
2023-04-11T19:55:09.519Z,1.98
2023-04-11T19:57:39.019Z,2.65
2023-04-11T20:00:16.388Z,2.55
2023-04-11T20:02:48.623Z,2.72
2023-04-11T20:05:19.549Z,2.80
2023-04-11T20:07:46.950Z,3.58
2023-04-11T20:10:15.014Z,2.25
2023-04-11T20:12:42.013Z,2.40
2023-04-11T20:15:09.998Z,3.20
2023-04-11T20:17:36.972Z,2.00
2023-04-11T20:20:08.647Z,2.38
2023-04-11T20:22:39.134Z,2.50
2023-04-11T20:25:08.243Z,2.67
2023-04-11T20:27:35.201Z,2.22
2023-04-11T20:30:07.935Z,2.60
2023-04-11T20:32:34.931Z,2.63
2023-04-11T20:35:02.067Z,2.13
2023-04-11T20:37:35.308Z,2.10
2023-04-11T20:40:03.998Z,2.38
2023-04-11T20:42:31.975Z,2.90
2023-04-11T20:45:10.426Z,2.50
2023-04-11T20:47:38.475Z,2.78
2023-04-11T20:50:10.855Z,3.92
2023-04-11T20:52:38.687Z,3.28
2023-04-11T20:55:06.156Z,2.65
2023-04-11T20:57:33.748Z,2.25
2023-04-11T21:00:01.538Z,1.95
2023-04-11T21:02:29.388Z,2.58
2023-04-11T21:04:56.407Z,3.30
2023-04-11T21:07:23.416Z,2.17
2023-04-11T21:09:50.711Z,3.45
2023-04-11T21:12:17.562Z,2.20
2023-04-11T21:14:44.488Z,2.38
2023-04-11T21:17:11.508Z,2.97
2023-04-11T21:19:38.775Z,1.77
2023-04-11T21:22:06.526Z,3.08
2023-04-11T21:24:34.788Z,2.17
2023-04-11T21:27:02.563Z,2.72
2023-04-11T21:29:29.706Z,2.95
2023-04-11T21:31:59.278Z,2.50
2023-04-11T21:34:27.592Z,2.85
2023-04-11T21:36:54.446Z,2.08
2023-04-11T21:39:21.388Z,3.00
2023-04-11T21:41:48.261Z,1.92
2023-04-11T21:44:15.164Z,1.88
2023-04-11T21:46:42.748Z,2.17
2023-04-11T21:49:09.656Z,1.65
2023-04-11T21:51:36.621Z,1.83
2023-04-11T21:54:06.490Z,2.28
2023-04-11T21:56:33.593Z,1.88
2023-04-11T21:59:00.714Z,3.40
2023-04-11T22:01:29.259Z,2.10
2023-04-11T22:03:56.511Z,2.08
2023-04-11T22:06:26.609Z,2.95
2023-04-11T22:08:53.828Z,1.83
2023-04-11T22:11:20.809Z,1.70
2023-04-11T22:13:47.751Z,2.40
2023-04-11T22:16:14.761Z,1.60
2023-04-11T22:18:47.442Z,1.83
2023-04-11T22:21:19.559Z,1.63
2023-04-11T22:23:55.978Z,2.65
2023-04-11T22:26:34.274Z,3.22
2023-04-11T22:29:05.918Z,3.60
2023-04-11T22:31:38.602Z,2.10
2023-04-11T22:34:08.384Z,2.17
2023-04-11T22:36:35.936Z,2.13
2023-04-11T22:39:07.027Z,1.67
2023-04-11T22:41:35.460Z,2.28
2023-04-11T22:44:03.042Z,2.83
2023-04-11T22:46:38.755Z,2.25
2023-04-11T22:49:06.810Z,1.98
2023-04-11T22:51:33.784Z,1.88
2023-04-11T22:54:01.234Z,2.17
2023-04-11T22:56:28.326Z,2.95
2023-04-11T22:58:55.469Z,2.22
2023-04-11T23:01:22.504Z,2.42
2023-04-11T23:03:49.663Z,2.88
2023-04-11T23:06:17.336Z,3.38
2023-04-11T23:08:44.294Z,2.17
2023-04-11T23:11:11.582Z,2.70
2023-04-11T23:13:38.525Z,2.90
2023-04-11T23:16:06.189Z,2.90
2023-04-11T23:18:33.095Z,1.88
2023-04-11T23:21:00.186Z,2.25
2023-04-11T23:23:27.952Z,2.70
2023-04-11T23:25:54.879Z,2.97
2023-04-11T23:28:24.152Z,3.00
2023-04-11T23:30:51.113Z,3.83
2023-04-11T23:33:18.524Z,1.92
2023-04-11T23:35:45.436Z,3.55
2023-04-11T23:38:13.572Z,2.60
2023-04-11T23:40:40.444Z,1.83
2023-04-11T23:43:08.101Z,2.72
2023-04-11T23:45:35.109Z,2.08
2023-04-11T23:48:02.106Z,3.47
2023-04-11T23:50:29.148Z,3.60
2023-04-11T23:52:56.021Z,4.25
2023-04-11T23:55:23.577Z,3.33
2023-04-11T23:57:50.578Z,3.72
